Time;durP1;ratioP1;P1;durP2;ratioP2;P2;SDS_P1;SDS_P2;PMS_P1;PMS_P2;Temp;Humidity;BMP_temperature;BMP_pressure;BME280_temperature;BME280_humidity;BME280_pressure;Samples;Min_cycle;Max_cycle;Signal;HPM_P1;HPM_P2
2022/05/14 00:01:23;;;;;;;16.23;7.37;;;;;;;39.48;43.25;101120.75;5074012;28;20441;-72
2022/05/14 00:03:49;;;;;;;13.27;6.60;;;;;;;39.46;43.56;101117.53;5073848;28;20511;-72
2022/05/14 00:06:19;;;;;;;12.83;5.50;;;;;;;39.51;43.21;101114.69;5074052;28;20414;-72
2022/05/14 00:08:46;;;;;;;20.53;6.03;;;;;;;39.41;43.32;101118.47;5073657;28;20472;-72
2022/05/14 00:13:57;;;;;;;20.07;5.83;;;;;;;39.41;43.54;101120.38;5075437;28;20416;-73
2022/05/14 00:16:25;;;;;;;11.27;5.33;;;;;;;39.43;43.30;101129.03;5073861;28;20422;-74
2022/05/14 00:18:53;;;;;;;10.93;5.50;;;;;;;39.42;43.36;101122.00;5073531;28;20449;-74
2022/05/14 00:21:20;;;;;;;13.07;7.73;;;;;;;39.43;43.27;101134.44;5074050;28;20424;-74
2022/05/14 00:23:47;;;;;;;12.63;5.40;;;;;;;39.45;43.31;101124.88;5073776;28;21083;-73
2022/05/14 00:26:13;;;;;;;18.50;6.20;;;;;;;39.48;43.42;101120.75;5073546;28;20433;-73
2022/05/14 00:28:40;;;;;;;12.40;6.93;;;;;;;39.51;43.47;101128.25;5073636;28;20939;-74
2022/05/14 00:31:06;;;;;;;11.20;5.70;;;;;;;39.52;43.41;101127.16;5073459;28;20418;-74
2022/05/14 00:33:32;;;;;;;13.77;6.00;;;;;;;39.50;43.16;101134.81;5073279;28;20441;-75
2022/05/14 00:35:59;;;;;;;13.80;6.90;;;;;;;39.47;43.81;101135.41;5073517;28;20418;-75
2022/05/14 00:38:25;;;;;;;12.40;7.60;;;;;;;39.46;43.13;101131.09;5074583;28;20433;-74
2022/05/14 00:41:10;;;;;;;12.30;6.47;;;;;;;39.40;43.12;101132.34;5073344;28;20433;-74
2022/05/14 00:43:47;;;;;;;12.40;5.70;;;;;;;39.36;43.31;101120.53;5073301;28;20452;-74
2022/05/14 00:46:22;;;;;;;14.03;5.67;;;;;;;39.32;43.25;101127.66;5073320;28;20417;-74
2022/05/14 00:48:51;;;;;;;12.10;5.73;;;;;;;39.39;42.69;101136.19;5073212;28;20474;-74
2022/05/14 00:51:25;;;;;;;13.03;5.83;;;;;;;39.35;42.57;101140.59;5073235;28;20440;-73
2022/05/14 00:53:55;;;;;;;14.33;5.13;;;;;;;39.36;42.27;101132.19;5073181;28;20604;-73
2022/05/14 00:56:31;;;;;;;15.47;5.50;;;;;;;39.42;42.40;101138.28;5074024;28;20417;-72
2022/05/14 00:59:13;;;;;;;17.50;5.70;;;;;;;39.44;42.67;101152.34;5073051;28;21000;-74
2022/05/14 01:01:39;;;;;;;14.33;6.43;;;;;;;39.44;42.74;101161.28;5072881;28;20440;-74
2022/05/14 01:04:07;;;;;;;11.10;5.73;;;;;;;39.47;42.02;101151.69;5072899;28;20461;-74
2022/05/14 01:06:35;;;;;;;21.30;7.00;;;;;;;39.48;42.10;101153.34;5072766;28;20529;-73
2022/05/14 01:09:04;;;;;;;14.20;6.67;;;;;;;39.48;42.05;101156.03;5072840;28;20508;-73
2022/05/14 01:11:33;;;;;;;16.73;7.03;;;;;;;39.47;42.34;101144.38;5074206;28;20419;-73
2022/05/14 01:13:59;;;;;;;15.87;5.70;;;;;;;39.48;42.39;101142.47;5072502;28;20434;-74
2022/05/14 01:16:26;;;;;;;9.90;6.40;;;;;;;39.45;42.33;101141.16;5072735;28;20429;-72
2022/05/14 01:18:52;;;;;;;11.97;5.33;;;;;;;39.43;42.10;101140.69;5072594;28;20418;-72
2022/05/14 01:21:55;;;;;;;18.17;5.83;;;;;;;39.44;42.40;101153.13;5072505;28;20503;-72
2022/05/14 01:27:11;;;;;;;13.87;6.63;;;;;;;39.48;42.72;101147.91;5073741;28;20822;-73
2022/05/14 01:29:40;;;;;;;15.20;5.13;;;;;;;39.45;42.38;101132.22;5072437;28;20418;-73
2022/05/14 01:32:07;;;;;;;13.93;5.57;;;;;;;39.42;42.58;101113.84;5072364;28;20414;-73
2022/05/14 01:34:35;;;;;;;19.70;6.40;;;;;;;39.45;42.63;101103.16;5072332;28;20401;-72
2022/05/14 01:37:03;;;;;;;14.80;5.23;;;;;;;39.42;43.10;101090.22;5072177;28;20520;-72
2022/05/14 01:39:29;;;;;;;9.40;4.50;;;;;;;39.46;43.37;101093.91;5072240;28;20414;-72
2022/05/14 01:41:56;;;;;;;12.47;5.27;;;;;;;39.47;43.11;101084.66;5073371;28;20469;-74
2022/05/14 01:44:23;;;;;;;14.03;5.20;;;;;;;39.44;43.10;101071.69;5071992;28;20905;-72
2022/05/14 01:46:49;;;;;;;10.97;5.37;;;;;;;39.44;42.67;101051.91;5073335;28;20445;-74
2022/05/14 01:49:16;;;;;;;13.87;6.90;;;;;;;39.50;42.72;101053.38;5072056;28;20452;-74
2022/05/14 01:51:42;;;;;;;13.90;6.10;;;;;;;39.45;42.95;101039.94;5071435;28;20920;-72
2022/05/14 01:54:08;;;;;;;9.53;6.20;;;;;;;39.45;42.95;101034.50;5070467;28;20425;-74
2022/05/14 01:56:34;;;;;;;10.57;6.30;;;;;;;39.46;42.86;101036.09;5070003;28;20912;-74
2022/05/14 01:59:01;;;;;;;14.13;5.10;;;;;;;39.40;42.70;101029.19;5070333;28;20437;-73
2022/05/14 02:01:30;;;;;;;22.70;6.23;;;;;;;39.37;42.38;101027.13;5070839;28;20529;-73
2022/05/14 02:04:06;;;;;;;9.13;4.23;;;;;;;39.37;42.07;101016.28;5054461;28;20568;-72
2022/05/14 02:06:33;;;;;;;15.97;6.67;;;;;;;39.40;42.40;101010.19;5072650;28;20491;-74
2022/05/14 02:08:59;;;;;;;12.27;5.40;;;;;;;39.37;42.00;100991.84;5069984;28;20414;-73
2022/05/14 02:11:27;;;;;;;16.03;6.00;;;;;;;39.39;42.01;100986.91;5069847;28;20932;-72
2022/05/14 02:13:54;;;;;;;14.60;5.20;;;;;;;39.34;42.02;100985.13;5069621;28;20445;-72
2022/05/14 02:16:21;;;;;;;11.83;5.87;;;;;;;39.34;42.32;100976.97;5053104;28;20442;-73
2022/05/14 02:18:48;;;;;;;17.53;5.60;;;;;;;39.36;42.75;100971.25;5069805;28;20401;-74
2022/05/14 02:21:15;;;;;;;13.33;5.43;;;;;;;39.44;42.57;100984.03;5069522;28;20413;-73
2022/05/14 02:23:41;;;;;;;7.63;4.70;;;;;;;39.44;41.93;100987.56;5069231;28;20508;-72
2022/05/14 02:26:10;;;;;;;8.80;5.27;;;;;;;39.39;42.45;100986.91;5071332;28;20410;-74
2022/05/14 02:28:38;;;;;;;10.67;5.00;;;;;;;39.35;42.53;100984.03;5038493;28;20809;-73
2022/05/14 02:31:04;;;;;;;9.30;5.30;;;;;;;39.27;42.41;100976.63;5054941;28;21037;-72
2022/05/14 02:33:30;;;;;;;18.20;6.17;;;;;;;39.22;42.99;100977.56;5071236;28;20418;-73
2022/05/14 02:35:57;;;;;;;8.90;5.00;;;;;;;39.20;43.19;100979.78;5070980;28;20536;-73
2022/05/14 02:38:24;;;;;;;11.70;4.87;;;;;;;39.25;43.16;100986.22;5072390;28;20398;-72
2022/05/14 02:40:51;;;;;;;14.10;5.17;;;;;;;39.20;43.35;100993.34;5071126;28;20966;-72
2022/05/14 02:43:17;;;;;;;8.57;4.43;;;;;;;39.29;43.51;101004.28;5072286;28;20437;-72
2022/05/14 02:45:43;;;;;;;14.10;6.60;;;;;;;39.22;43.12;101015.53;5070868;28;20429;-72
2022/05/14 02:48:10;;;;;;;11.90;5.70;;;;;;;39.12;43.09;101026.66;5070958;28;20437;-72
2022/05/14 02:50:37;;;;;;;11.90;5.80;;;;;;;39.14;43.10;101023.63;5070682;28;20448;-74
2022/05/14 02:53:03;;;;;;;12.60;5.40;;;;;;;39.17;42.87;101023.03;5070874;28;20520;-73
2022/05/14 02:55:30;;;;;;;11.93;5.53;;;;;;;39.16;42.91;101022.22;5070754;28;20457;-72
2022/05/14 02:57:56;;;;;;;11.47;4.80;;;;;;;39.17;42.44;101023.84;5070787;28;20435;-72
2022/05/14 03:00:22;;;;;;;14.13;6.00;;;;;;;39.17;42.62;101023.03;5070730;28;20449;-74
2022/05/14 03:02:48;;;;;;;17.93;5.47;;;;;;;39.14;42.22;101024.41;5070595;28;20446;-74
2022/05/14 03:05:17;;;;;;;14.63;6.77;;;;;;;39.15;41.47;101028.72;5070537;28;20461;-74
2022/05/14 03:07:44;;;;;;;26.03;6.80;;;;;;;39.08;40.89;101039.22;5070763;28;20414;-73
2022/05/14 03:10:11;;;;;;;12.67;6.40;;;;;;;39.21;39.84;101027.50;5070557;28;20424;-73
2022/05/14 03:12:37;;;;;;;15.70;6.80;;;;;;;39.22;38.93;101023.69;5070713;28;20421;-72
2022/05/14 03:15:05;;;;;;;15.03;7.17;;;;;;;39.21;39.01;101015.88;5070645;28;20413;-72
2022/05/14 03:17:34;;;;;;;12.73;7.20;;;;;;;39.19;39.04;101012.66;5071824;28;20397;-74
2022/05/14 03:20:08;;;;;;;12.67;7.10;;;;;;;39.20;39.40;101017.78;5071707;28;20417;-74
2022/05/14 03:22:35;;;;;;;14.43;8.10;;;;;;;39.16;39.82;101021.41;5070914;28;20444;-74
2022/05/14 03:25:02;;;;;;;17.77;7.80;;;;;;;39.17;39.45;101050.19;5069893;28;20927;-73
2022/05/14 03:27:28;;;;;;;21.83;7.87;;;;;;;39.16;39.49;101056.69;5070587;28;20429;-74
2022/05/14 03:29:54;;;;;;;13.80;5.80;;;;;;;39.18;39.84;101052.56;5071876;28;20485;-74
2022/05/14 03:32:21;;;;;;;17.63;6.80;;;;;;;39.14;40.61;101067.03;5070453;28;20418;-74
2022/05/14 03:34:47;;;;;;;13.60;8.27;;;;;;;39.14;40.68;101070.53;5070523;28;20406;-73
2022/05/14 03:37:13;;;;;;;16.20;6.07;;;;;;;39.03;41.47;101076.53;5071799;28;20512;-74
2022/05/14 03:39:39;;;;;;;18.70;6.20;;;;;;;39.07;41.71;101094.59;5070652;28;20410;-74
2022/05/14 03:42:06;;;;;;;15.70;6.23;;;;;;;39.01;41.24;101100.47;5070391;28;20406;-72
2022/05/14 03:44:32;;;;;;;16.87;6.53;;;;;;;39.00;41.15;101104.28;5070294;28;20465;-72
2022/05/14 03:46:58;;;;;;;15.83;5.80;;;;;;;38.96;41.73;101117.66;5070373;28;20449;-72
2022/05/14 03:49:24;;;;;;;17.93;7.13;;;;;;;38.69;42.37;101130.16;5070333;28;20418;-73
2022/05/14 03:51:52;;;;;;;22.27;8.40;;;;;;;38.68;42.82;101142.13;5070260;28;20429;-72
2022/05/14 03:54:18;;;;;;;23.17;6.73;;;;;;;38.56;42.66;101144.53;5070308;28;20421;-72
2022/05/14 03:56:44;;;;;;;16.30;6.80;;;;;;;38.47;42.98;101140.94;5070019;28;20539;-72
2022/05/14 03:59:11;;;;;;;14.83;7.03;;;;;;;38.35;43.56;101121.69;5070326;28;20501;-73
2022/05/14 04:01:38;;;;;;;22.53;9.00;;;;;;;38.33;43.70;101123.91;5070183;28;20445;-73
2022/05/14 04:04:04;;;;;;;30.03;6.80;;;;;;;38.20;44.24;101124.69;5069899;28;20540;-74
2022/05/14 04:06:30;;;;;;;20.47;7.27;;;;;;;38.21;44.57;101123.56;5071555;28;20904;-73
2022/05/14 04:08:56;;;;;;;26.53;8.87;;;;;;;38.27;44.31;101112.34;5070006;28;20804;-73
2022/05/14 04:11:23;;;;;;;26.13;8.53;;;;;;;38.35;44.28;101106.22;5071458;28;20808;-73
2022/05/14 04:13:50;;;;;;;16.97;8.73;;;;;;;38.48;44.11;101099.16;5071357;28;20951;-73
2022/05/14 04:16:16;;;;;;;15.80;9.80;;;;;;;38.20;43.59;101105.72;5070001;28;20413;-74
2022/05/14 04:18:43;;;;;;;16.17;6.97;;;;;;;38.29;42.73;101102.00;5071262;28;20441;-74
2022/05/14 04:21:10;;;;;;;26.23;11.37;;;;;;;38.29;42.88;101103.91;5069994;28;20425;-73
2022/05/14 04:23:36;;;;;;;12.60;6.40;;;;;;;38.26;42.80;101105.34;5069988;28;20833;-73
2022/05/14 04:26:04;;;;;;;16.03;7.70;;;;;;;38.13;42.64;101071.72;5071157;28;20450;-73
2022/05/14 04:28:30;;;;;;;22.50;9.17;;;;;;;38.00;42.21;101034.59;5069943;28;20429;-74
2022/05/14 04:30:57;;;;;;;37.30;9.13;;;;;;;37.97;42.74;101018.16;5070183;28;20433;-74
2022/05/14 04:33:25;;;;;;;24.97;9.93;;;;;;;37.86;42.74;100971.50;5073402;28;20448;-74
2022/05/14 04:35:51;;;;;;;19.90;8.80;;;;;;;37.80;42.79;100970.81;5073580;28;20418;-73
2022/05/14 04:38:18;;;;;;;15.10;6.90;;;;;;;37.88;42.07;100977.44;5074896;28;20406;-72
2022/05/14 04:40:44;;;;;;;27.53;9.83;;;;;;;37.70;42.25;100965.59;5073256;28;20681;-72
2022/05/14 04:43:12;;;;;;;15.10;7.47;;;;;;;37.64;42.50;100964.91;5073426;28;20410;-74
2022/05/14 04:45:40;;;;;;;21.10;8.90;;;;;;;37.62;42.31;100944.63;5073420;28;20456;-72
2022/05/14 04:48:07;;;;;;;21.10;8.83;;;;;;;37.46;43.08;100927.13;5072761;28;20418;-72
2022/05/14 04:50:33;;;;;;;19.73;7.87;;;;;;;37.41;42.95;100917.19;5072690;28;20572;-72
2022/05/14 04:52:59;;;;;;;29.20;10.30;;;;;;;37.33;43.86;100936.81;5072538;28;20426;-74
2022/05/14 04:55:25;;;;;;;31.80;9.57;;;;;;;37.28;44.09;100961.25;5072427;28;20940;-72
2022/05/14 04:57:51;;;;;;;20.37;7.47;;;;;;;37.49;43.38;100958.97;5072439;28;20950;-72
2022/05/14 05:00:18;;;;;;;18.83;9.50;;;;;;;37.55;43.36;100980.22;5078100;28;20435;-72
2022/05/14 05:05:30;;;;;;;22.97;7.70;;;;;;;37.69;43.70;101014.59;5073570;28;20508;-72
2022/05/14 05:07:56;;;;;;;18.17;7.97;;;;;;;37.62;43.07;101010.41;5073223;28;20410;-72
2022/05/14 05:10:22;;;;;;;19.60;8.40;;;;;;;37.53;43.58;100993.25;5071267;28;20442;-71
2022/05/14 05:12:48;;;;;;;18.87;6.47;;;;;;;37.52;43.42;100997.06;5071143;28;20483;-72
2022/05/14 05:15:15;;;;;;;23.67;10.63;;;;;;;37.49;43.44;100997.66;5054425;28;20418;-70
2022/05/14 05:17:41;;;;;;;16.20;9.60;;;;;;;37.24;43.76;100992.69;5071243;28;20418;-73
2022/05/14 05:20:09;;;;;;;23.23;7.57;;;;;;;37.19;44.53;100990.88;5072429;28;20475;-73
2022/05/14 05:22:35;;;;;;;16.40;6.90;;;;;;;37.32;44.00;100989.28;5076186;28;20417;-71
2022/05/14 05:25:01;;;;;;;21.27;11.40;;;;;;;36.88;45.05;100981.69;5072061;28;20469;-71
2022/05/14 05:27:28;;;;;;;33.23;10.50;;;;;;;36.99;44.92;100967.72;5072091;28;20479;-73
2022/05/14 05:29:54;;;;;;;16.67;11.73;;;;;;;37.34;43.92;100970.91;5072601;28;20421;-72
2022/05/14 05:32:20;;;;;;;18.60;8.20;;;;;;;37.58;43.33;100960.69;5072740;28;20770;-72
2022/05/14 05:34:47;;;;;;;14.47;8.20;;;;;;;37.81;43.13;100972.44;5073816;28;20398;-72
2022/05/14 05:37:13;;;;;;;15.10;7.67;;;;;;;37.96;42.81;100982.13;5072413;28;20456;-72
2022/05/14 05:39:39;;;;;;;15.50;8.90;;;;;;;38.01;42.73;100981.25;5072350;28;20444;-73
2022/05/14 05:42:05;;;;;;;14.07;5.83;;;;;;;38.08;42.60;100974.28;5072238;28;20409;-72
2022/05/14 05:44:31;;;;;;;17.80;7.00;;;;;;;38.09;42.04;100978.59;5072153;28;20471;-71
2022/05/14 05:46:57;;;;;;;22.13;6.67;;;;;;;38.23;41.76;100975.84;5072134;28;20426;-72
2022/05/14 05:49:23;;;;;;;11.87;5.77;;;;;;;38.28;41.68;100964.13;5072110;28;20471;-71
2022/05/14 05:51:49;;;;;;;16.20;6.10;;;;;;;38.31;41.58;100974.38;5071785;28;20444;-71
2022/05/14 05:57:00;;;;;;;19.27;7.03;;;;;;;38.27;42.40;100976.88;5073306;28;20409;-73
2022/05/14 05:59:28;;;;;;;23.80;7.10;;;;;;;38.35;42.25;100975.34;5071798;28;20507;-73
2022/05/14 06:01:54;;;;;;;28.30;9.10;;;;;;;38.34;42.48;100981.88;5071781;28;20453;-72
2022/05/14 06:04:21;;;;;;;27.03;8.03;;;;;;;38.27;42.78;100984.22;5072869;28;20473;-72
2022/05/14 06:06:47;;;;;;;29.83;7.63;;;;;;;38.16;42.96;100987.09;5071820;28;20417;-72
2022/05/14 06:09:20;;;;;;;16.13;7.03;;;;;;;38.20;42.99;100981.09;5071104;28;20437;-71
2022/05/14 06:11:46;;;;;;;16.90;7.10;;;;;;;38.31;42.55;100980.59;5070955;28;20418;-72
2022/05/14 06:14:13;;;;;;;19.03;6.77;;;;;;;38.39;42.15;100977.16;5070798;28;20418;-71
2022/05/14 06:16:40;;;;;;;18.20;8.37;;;;;;;38.50;41.62;100971.50;5070937;28;20449;-71
2022/05/14 06:19:07;;;;;;;28.73;8.50;;;;;;;38.49;41.82;100970.69;5079471;28;20421;-71
2022/05/14 06:21:36;;;;;;;14.07;6.70;;;;;;;38.50;41.71;100961.44;5070666;28;20461;-72
2022/05/14 06:24:03;;;;;;;19.93;7.27;;;;;;;38.48;41.23;100960.94;5069696;28;20904;-72
2022/05/14 06:26:29;;;;;;;18.80;6.80;;;;;;;38.46;41.50;100963.16;5070692;28;20458;-73
2022/05/14 06:28:55;;;;;;;22.10;6.03;;;;;;;38.45;41.15;100958.84;5071068;28;20448;-72
2022/05/14 06:31:21;;;;;;;16.70;5.20;;;;;;;38.43;41.54;100969.22;5070373;28;20484;-71
2022/05/14 06:33:48;;;;;;;13.97;7.73;;;;;;;38.30;41.95;100972.75;5070547;28;20796;-71
2022/05/14 06:36:15;;;;;;;18.50;9.50;;;;;;;38.23;41.88;100978.56;5070296;28;20434;-72
2022/05/14 06:38:41;;;;;;;17.70;8.70;;;;;;;38.17;42.11;100977.88;5053782;28;20414;-72
2022/05/14 06:41:10;;;;;;;19.23;6.87;;;;;;;38.07;41.87;100971.91;5070339;28;20418;-73
2022/05/14 06:43:36;;;;;;;9.87;6.17;;;;;;;37.97;42.26;100981.03;5070484;28;20508;-72
2022/05/14 06:46:03;;;;;;;12.57;5.03;;;;;;;37.96;42.16;100984.06;5070402;28;20425;-72
2022/05/14 06:48:29;;;;;;;15.13;6.47;;;;;;;38.06;41.78;100990.06;5071376;28;20426;-72
2022/05/14 06:50:59;;;;;;;18.43;8.80;;;;;;;37.78;43.08;100985.75;5069623;28;20479;-72
2022/05/14 06:53:25;;;;;;;26.43;10.43;;;;;;;37.90;42.80;100986.88;5053498;28;20526;-71
2022/05/14 06:55:54;;;;;;;24.23;11.50;;;;;;;37.71;43.38;100991.56;5070201;28;20513;-71
2022/05/14 06:58:25;;;;;;;23.23;9.50;;;;;;;37.55;43.75;100998.38;5069378;28;20812;-71
2022/05/14 07:00:51;;;;;;;21.87;11.97;;;;;;;37.45;44.48;101010.22;5070039;28;20947;-76
2022/05/14 07:08:47;;;;;;;21.50;12.10;;;;;;;37.68;44.17;101021.94;5071543;28;20931;-77
2022/05/14 07:11:16;;;;;;;19.20;12.97;;;;;;;37.80;44.47;101035.78;5072548;28;20998;-71
2022/05/14 07:13:42;;;;;;;26.57;10.90;;;;;;;37.90;44.68;101034.81;5071330;28;20811;-71
2022/05/14 07:16:08;;;;;;;20.73;12.77;;;;;;;37.89;44.79;101046.75;5069553;28;20440;-70
2022/05/14 07:18:34;;;;;;;19.43;13.23;;;;;;;37.78;44.84;101050.72;5075482;28;20417;-71
2022/05/14 07:21:00;;;;;;;26.80;17.23;;;;;;;37.41;46.07;101052.47;5090838;28;20451;-70
2022/05/14 07:23:26;;;;;;;34.13;15.70;;;;;;;37.63;45.38;101058.03;5075052;28;20457;-71
2022/05/14 07:25:52;;;;;;;36.23;19.63;;;;;;;37.68;45.31;101064.44;5069783;28;20471;-70
2022/05/14 07:28:19;;;;;;;31.50;21.40;;;;;;;37.75;45.39;101081.09;5070300;28;20426;-70
2022/05/14 07:30:45;;;;;;;31.10;20.20;;;;;;;37.51;45.73;101084.78;5072178;28;20453;-75
2022/05/14 07:33:12;;;;;;;28.47;17.30;;;;;;;37.80;45.32;101095.38;5069722;28;20422;-70
2022/05/14 07:35:38;;;;;;;23.73;14.80;;;;;;;37.74;45.03;101095.72;5069729;28;20414;-68
2022/05/14 07:38:06;;;;;;;28.90;16.10;;;;;;;37.73;44.55;101108.47;5053055;28;20446;-67
2022/05/14 07:40:35;;;;;;;23.53;15.50;;;;;;;37.70;44.53;101119.09;5069287;28;20516;-67
2022/05/14 07:43:16;;;;;;;36.80;17.63;;;;;;;37.86;44.14;101121.25;5069548;28;20413;-69
2022/05/14 07:45:44;;;;;;;21.67;14.23;;;;;;;38.00;44.08;101132.09;5069701;28;20460;-69
2022/05/14 07:48:17;;;;;;;23.73;13.20;;;;;;;38.04;43.50;101148.53;5071028;28;20483;-69
2022/05/14 07:50:44;;;;;;;27.70;18.90;;;;;;;38.07;43.83;101140.63;5069958;28;20429;-68
2022/05/14 07:53:11;;;;;;;24.93;15.10;;;;;;;38.16;43.41;101146.13;5069387;28;21044;-72
2022/05/14 07:55:37;;;;;;;20.13;13.33;;;;;;;37.85;44.27;101154.03;5069701;28;20715;-74
2022/05/14 07:58:07;;;;;;;25.47;12.60;;;;;;;37.99;44.05;101152.16;5081371;28;20500;-69
2022/05/14 08:00:33;;;;;;;25.17;13.33;;;;;;;37.49;45.05;101153.81;5074132;28;20825;-68
2022/05/14 08:03:08;;;;;;;17.43;12.70;;;;;;;37.39;45.60;101154.81;5069276;28;20440;-68
2022/05/14 08:05:34;;;;;;;18.87;13.13;;;;;;;37.74;44.81;101144.47;5072194;28;20449;-75
2022/05/14 08:08:00;;;;;;;24.27;13.90;;;;;;;37.95;44.47;101139.53;5072761;28;20484;-70
2022/05/14 08:10:26;;;;;;;17.50;10.80;;;;;;;37.98;44.55;101144.31;5074714;28;20419;-70
2022/05/14 08:12:57;;;;;;;24.10;16.83;;;;;;;37.83;44.42;101145.44;5072968;28;20425;-70
2022/05/14 08:15:25;;;;;;;17.73;12.10;;;;;;;37.67;44.50;101144.84;5073178;28;20831;-71
2022/05/14 08:17:51;;;;;;;20.40;12.13;;;;;;;37.74;45.04;101150.69;5073081;28;20476;-70
2022/05/14 08:20:18;;;;;;;31.63;13.90;;;;;;;37.45;45.84;101147.41;5073065;28;20460;-70
2022/05/14 08:25:30;;;;;;;23.73;10.90;;;;;;;37.48;45.44;101150.31;5074074;28;20463;-71
2022/05/14 08:27:57;;;;;;;16.00;10.17;;;;;;;37.53;44.95;101144.03;5072928;28;20830;-75
2022/05/14 08:30:32;;;;;;;16.87;10.47;;;;;;;37.56;45.11;101151.53;5072486;28;21145;-71
2022/05/14 08:32:58;;;;;;;21.50;11.57;;;;;;;37.89;44.68;101160.47;5082977;28;20513;-70
2022/05/14 08:35:25;;;;;;;15.10;10.67;;;;;;;37.94;44.45;101162.25;5093098;28;20452;-71
2022/05/14 08:37:54;;;;;;;15.00;9.67;;;;;;;37.97;44.93;101157.06;5093823;28;20413;-71
2022/05/14 08:40:28;;;;;;;17.17;9.80;;;;;;;38.14;44.03;101170.03;5093612;28;20436;-70
2022/05/14 08:42:58;;;;;;;13.43;8.63;;;;;;;38.15;43.48;101172.44;5093484;28;20810;-72
2022/05/14 08:45:27;;;;;;;14.60;10.37;;;;;;;38.27;43.48;101171.16;5090479;28;20458;-76
2022/05/14 08:48:04;;;;;;;19.60;10.20;;;;;;;38.38;43.63;101176.09;5072055;28;20797;-72
2022/05/14 08:50:35;;;;;;;16.13;11.10;;;;;;;38.13;44.39;101176.56;5081471;28;20423;-71
2022/05/14 08:53:08;;;;;;;18.13;10.77;;;;;;;38.30;44.04;101171.34;5074354;28;20421;-77
2022/05/14 08:55:46;;;;;;;18.77;9.67;;;;;;;38.58;43.69;101171.34;5090915;28;20857;-72
2022/05/14 08:58:21;;;;;;;17.87;10.33;;;;;;;38.77;43.05;101168.53;5075212;28;20851;-77
2022/05/14 09:44:44;;;;;;;18.13;8.30;;;;;;;38.59;44.88;101194.63;5110045;27;20341;-74
2022/05/14 09:47:14;;;;;;;13.73;8.53;;;;;;;38.80;44.08;101201.28;5108296;28;20467;-69
2022/05/14 09:49:42;;;;;;;16.73;8.40;;;;;;;38.96;43.69;101202.53;5091018;28;20840;-68
2022/05/14 09:52:11;;;;;;;14.47;7.53;;;;;;;39.04;43.49;101203.75;5108179;28;20452;-70
2022/05/14 09:54:43;;;;;;;14.97;6.90;;;;;;;39.13;43.10;101207.31;5090362;28;20447;-68
2022/05/14 09:57:12;;;;;;;17.43;6.57;;;;;;;39.30;42.98;101200.47;5090622;28;20411;-69
2022/05/14 10:00:07;;;;;;;13.43;7.97;;;;;;;39.35;42.65;101197.59;5102637;28;20412;-69
2022/05/14 10:02:36;;;;;;;10.10;4.70;;;;;;;39.26;42.81;101199.47;5074340;28;20448;-71
2022/05/14 10:05:02;;;;;;;13.27;7.03;;;;;;;39.28;42.77;101195.31;5109236;28;20392;-71
2022/05/14 10:07:37;;;;;;;13.23;7.03;;;;;;;39.37;42.49;101201.63;5090665;28;20420;-71
2022/05/14 10:10:19;;;;;;;17.57;6.83;;;;;;;39.47;41.95;101206.81;5090183;28;20444;-70
2022/05/14 10:12:48;;;;;;;18.70;8.10;;;;;;;39.51;42.25;101201.56;5090433;28;20891;-69
2022/05/14 10:15:42;;;;;;;14.40;8.00;;;;;;;39.40;42.79;101211.84;5069829;28;20936;-70
2022/05/14 10:18:25;;;;;;;17.87;7.93;;;;;;;39.49;42.24;101211.94;5070345;28;20920;-71
2022/05/14 10:21:05;;;;;;;18.83;7.00;;;;;;;39.42;42.96;101217.00;5072468;28;20416;-71
2022/05/14 10:27:16;;;;;;;12.93;6.53;;;;;;;39.48;42.33;101216.56;5109026;28;20533;-72
2022/05/14 10:30:22;;;;;;;16.23;7.77;;;;;;;39.57;42.04;101215.81;5088174;28;20393;-72
2022/05/14 10:33:07;;;;;;;18.40;7.90;;;;;;;39.62;42.02;101210.28;5005908;28;20468;-70
2022/05/14 10:35:58;;;;;;;17.63;7.83;;;;;;;39.65;42.03;101204.22;5064074;28;20418;-70
2022/05/14 10:38:35;;;;;;;12.27;6.60;;;;;;;39.66;42.07;101203.13;5066460;28;20445;-70
2022/05/14 10:41:07;;;;;;;11.83;8.90;;;;;;;39.65;42.23;101201.50;5067745;28;20757;-70
2022/05/14 10:43:37;;;;;;;19.37;10.73;;;;;;;39.67;41.36;101205.53;5044932;28;21009;-70
2022/05/14 10:46:09;;;;;;;15.37;5.87;;;;;;;39.58;40.66;101201.91;5036524;28;20437;-70
2022/05/14 10:49:03;;;;;;;15.70;6.90;;;;;;;39.61;40.55;101195.91;5034882;28;20410;-70
2022/05/14 10:51:37;;;;;;;23.00;6.57;;;;;;;39.65;40.30;101196.88;5072369;28;20402;-70
2022/05/14 10:54:04;;;;;;;13.03;5.67;;;;;;;39.63;40.12;101199.13;5054508;28;20999;-70
2022/05/14 10:56:34;;;;;;;23.20;7.67;;;;;;;39.67;39.84;101183.00;5072591;28;20481;-70
2022/05/14 10:59:07;;;;;;;16.63;8.53;;;;;;;39.70;39.69;101175.03;5072493;28;20965;-70
2022/05/14 11:01:35;;;;;;;15.73;7.57;;;;;;;39.73;39.50;101179.06;5054553;28;20405;-70
2022/05/14 11:04:26;;;;;;;18.20;6.77;;;;;;;39.74;39.11;101173.31;5056100;28;20408;-70
2022/05/14 11:06:58;;;;;;;12.27;6.40;;;;;;;39.86;38.73;101171.94;5047564;28;20491;-70
2022/05/14 11:09:37;;;;;;;18.20;6.40;;;;;;;39.90;39.22;101154.72;5056101;28;20421;-70
2022/05/14 11:12:09;;;;;;;17.37;7.97;;;;;;;39.88;39.13;101147.97;5055845;28;20460;-70
2022/05/14 11:14:56;;;;;;;21.57;6.90;;;;;;;39.96;39.06;101149.91;5056103;28;20412;-70
2022/05/14 11:17:26;;;;;;;14.77;6.70;;;;;;;40.03;39.15;101144.84;5055917;28;20479;-71
2022/05/14 11:20:04;;;;;;;21.33;6.80;;;;;;;40.03;38.72;101155.72;5055742;28;20968;-70
2022/05/14 11:22:35;;;;;;;15.20;6.53;;;;;;;40.05;38.40;101153.50;5055684;28;20798;-70
2022/05/14 11:25:17;;;;;;;14.60;6.80;;;;;;;39.97;38.39;101154.25;5055713;28;20421;-70
2022/05/14 11:27:55;;;;;;;15.00;6.77;;;;;;;39.99;38.91;101154.72;5035255;28;20841;-70
2022/05/14 11:30:41;;;;;;;18.93;6.40;;;;;;;40.01;38.72;101152.50;5051619;28;20943;-69
2022/05/14 11:33:43;;;;;;;18.23;7.33;;;;;;;40.12;38.77;101144.91;5053601;28;20583;-70
2022/05/14 11:36:12;;;;;;;16.53;6.83;;;;;;;40.07;38.39;101150.47;4953474;28;21085;-70
2022/05/14 11:38:45;;;;;;;15.07;7.40;;;;;;;40.08;38.41;101143.91;5019672;28;20449;-70
2022/05/14 11:41:14;;;;;;;14.00;6.67;;;;;;;40.11;38.34;101148.72;5018147;28;20422;-71
2022/05/14 11:43:43;;;;;;;25.63;7.20;;;;;;;40.08;37.96;101144.72;5032101;28;20489;-71
2022/05/14 11:46:30;;;;;;;13.00;6.20;;;;;;;40.12;38.05;101134.03;5031925;28;20424;-70
2022/05/14 11:49:21;;;;;;;14.80;7.47;;;;;;;40.10;38.22;101131.63;5030228;28;20434;-71
2022/05/14 11:52:16;;;;;;;14.13;5.87;;;;;;;40.06;38.36;101132.56;5030282;28;20962;-71
2022/05/14 11:54:59;;;;;;;21.03;6.40;;;;;;;40.02;38.49;101130.47;5031177;28;20408;-71
2022/05/14 11:57:36;;;;;;;12.60;6.20;;;;;;;39.95;38.62;101132.00;5038239;28;21021;-71
2022/05/14 12:00:22;;;;;;;17.83;7.10;;;;;;;39.93;38.51;101121.47;5050154;28;20537;-71
2022/05/14 12:02:48;;;;;;;15.60;6.73;;;;;;;40.02;38.24;101133.19;5050721;28;21031;-71
2022/05/14 12:05:21;;;;;;;17.73;6.90;;;;;;;40.08;38.06;101127.59;5051599;28;20430;-69
2022/05/14 12:08:24;;;;;;;11.30;7.00;;;;;;;40.06;38.51;101119.78;5051556;28;20442;-70
2022/05/14 12:10:56;;;;;;;19.03;7.30;;;;;;;40.09;39.01;101115.66;5051625;28;20410;-71
2022/05/14 12:13:49;;;;;;;17.93;10.20;;;;;;;40.05;39.04;101110.03;5051704;28;20459;-72
2022/05/14 12:16:16;;;;;;;21.30;9.30;;;;;;;39.98;39.51;101113.19;5052881;28;20433;-70
2022/05/14 12:18:43;;;;;;;14.63;7.27;;;;;;;40.09;38.76;101112.94;5053088;28;20427;-70
2022/05/14 12:21:10;;;;;;;14.13;6.53;;;;;;;40.13;38.36;101100.28;5051445;28;20957;-71
2022/05/14 12:23:38;;;;;;;15.23;7.37;;;;;;;40.12;38.46;101096.78;5051345;28;20898;-72
2022/05/14 12:26:06;;;;;;;21.73;7.10;;;;;;;40.18;38.38;101097.44;5051283;28;20476;-72
2022/05/14 12:28:35;;;;;;;19.50;8.03;;;;;;;40.18;38.45;101090.09;5051315;28;20873;-70
2022/05/14 12:34:02;;;;;;;16.00;7.67;;;;;;;40.10;38.66;101087.34;5052624;28;20965;-70
2022/05/14 12:36:39;;;;;;;13.47;6.37;;;;;;;40.15;38.82;101085.28;5052576;28;20397;-70
2022/05/14 12:39:14;;;;;;;17.87;9.67;;;;;;;40.15;39.00;101079.88;5051063;28;20415;-70